sensor_id;sensor_type;location;lat;lon;timestamp;pressure;altitude;pressure_sealevel;temperature;humidity
16016;BME280;8112;53.592;10.184;2023-05-09T00:03:47;101764.94;;;11.84;100.00
16016;BME280;8112;53.592;10.184;2023-05-09T00:08:52;101759.31;;;11.73;100.00
16016;BME280;8112;53.592;10.184;2023-05-09T00:13:54;101760.38;;;11.69;100.00
16016;BME280;8112;53.592;10.184;2023-05-09T00:18:59;101760.19;;;11.54;100.00
16016;BME280;8112;53.592;10.184;2023-05-09T00:24:05;101768.75;;;11.60;100.00
16016;BME280;8112;53.592;10.184;2023-05-09T00:29:07;101777.00;;;11.52;100.00
16016;BME280;8112;53.592;10.184;2023-05-09T00:34:08;101759.47;;;11.51;100.00
16016;BME280;8112;53.592;10.184;2023-05-09T00:39:11;101759.25;;;11.36;100.00
16016;BME280;8112;53.592;10.184;2023-05-09T00:44:14;101749.75;;;11.32;100.00
16016;BME280;8112;53.592;10.184;2023-05-09T00:49:16;101742.03;;;11.27;100.00
16016;BME280;8112;53.592;10.184;2023-05-09T00:54:19;101733.28;;;11.27;100.00
16016;BME280;8112;53.592;10.184;2023-05-09T00:59:24;101725.19;;;11.11;100.00
16016;BME280;8112;53.592;10.184;2023-05-09T01:04:26;101713.56;;;11.15;100.00
16016;BME280;8112;53.592;10.184;2023-05-09T01:09:37;101702.53;;;11.07;100.00
16016;BME280;8112;53.592;10.184;2023-05-09T01:14:53;101699.81;;;10.89;100.00
16016;BME280;8112;53.592;10.184;2023-05-09T01:20:09;101695.41;;;10.90;100.00
16016;BME280;8112;53.592;10.184;2023-05-09T01:25:43;101692.81;;;10.88;100.00
16016;BME280;8112;53.592;10.184;2023-05-09T01:30:52;101674.84;;;10.77;100.00
16016;BME280;8112;53.592;10.184;2023-05-09T01:35:58;101680.50;;;10.68;100.00
16016;BME280;8112;53.592;10.184;2023-05-09T01:41:05;101694.13;;;10.59;100.00
16016;BME280;8112;53.592;10.184;2023-05-09T01:46:11;101685.63;;;10.52;100.00
16016;BME280;8112;53.592;10.184;2023-05-09T01:51:15;101688.09;;;10.55;100.00
16016;BME280;8112;53.592;10.184;2023-05-09T01:56:17;101673.50;;;10.48;100.00
16016;BME280;8112;53.592;10.184;2023-05-09T02:01:23;101678.53;;;10.32;100.00
16016;BME280;8112;53.592;10.184;2023-05-09T02:06:26;101675.97;;;10.30;100.00
16016;BME280;8112;53.592;10.184;2023-05-09T02:11:31;101677.03;;;10.26;100.00
16016;BME280;8112;53.592;10.184;2023-05-09T02:16:34;101666.69;;;10.21;100.00
16016;BME280;8112;53.592;10.184;2023-05-09T02:21:36;101662.41;;;10.19;100.00
16016;BME280;8112;53.592;10.184;2023-05-09T02:26:39;101662.25;;;10.22;100.00
16016;BME280;8112;53.592;10.184;2023-05-09T02:31:44;101652.97;;;10.13;100.00
16016;BME280;8112;53.592;10.184;2023-05-09T02:36:47;101657.25;;;10.16;100.00
16016;BME280;8112;53.592;10.184;2023-05-09T02:41:50;101652.91;;;10.15;100.00
16016;BME280;8112;53.592;10.184;2023-05-09T02:46:54;101654.34;;;10.01;100.00
16016;BME280;8112;53.592;10.184;2023-05-09T02:51:55;101651.97;;;9.95;100.00
16016;BME280;8112;53.592;10.184;2023-05-09T02:57:01;101640.66;;;9.93;100.00
16016;BME280;8112;53.592;10.184;2023-05-09T03:02:04;101639.19;;;9.86;100.00
16016;BME280;8112;53.592;10.184;2023-05-09T03:07:06;101634.19;;;9.79;100.00
16016;BME280;8112;53.592;10.184;2023-05-09T03:12:11;101638.19;;;9.67;100.00
16016;BME280;8112;53.592;10.184;2023-05-09T03:17:15;101624.84;;;9.72;100.00
16016;BME280;8112;53.592;10.184;2023-05-09T03:22:21;101622.44;;;9.66;100.00
16016;BME280;8112;53.592;10.184;2023-05-09T03:33:51;101624.28;;;9.64;100.00
16016;BME280;8112;53.592;10.184;2023-05-09T03:38:55;101606.91;;;9.60;100.00
16016;BME280;8112;53.592;10.184;2023-05-09T03:43:58;101603.72;;;9.51;100.00
16016;BME280;8112;53.592;10.184;2023-05-09T03:49:03;101605.34;;;9.55;100.00
16016;BME280;8112;53.592;10.184;2023-05-09T03:54:06;101610.47;;;9.59;100.00
16016;BME280;8112;53.592;10.184;2023-05-09T03:59:08;101602.38;;;9.63;100.00
16016;BME280;8112;53.592;10.184;2023-05-09T04:04:12;101592.34;;;9.73;100.00
16016;BME280;8112;53.592;10.184;2023-05-09T04:09:14;101584.16;;;9.79;100.00
16016;BME280;8112;53.592;10.184;2023-05-09T04:14:18;101598.78;;;9.87;100.00
16016;BME280;8112;53.592;10.184;2023-05-09T04:19:21;101597.78;;;9.89;100.00
16016;BME280;8112;53.592;10.184;2023-05-09T04:24:24;101601.41;;;9.87;100.00
16016;BME280;8112;53.592;10.184;2023-05-09T04:29:25;101585.09;;;9.99;100.00
16016;BME280;8112;53.592;10.184;2023-05-09T04:34:31;101583.84;;;10.08;100.00
16016;BME280;8112;53.592;10.184;2023-05-09T04:39:39;101580.34;;;10.28;100.00
16016;BME280;8112;53.592;10.184;2023-05-09T04:44:49;101577.63;;;10.50;100.00
16016;BME280;8112;53.592;10.184;2023-05-09T04:49:56;101585.84;;;10.82;100.00
16016;BME280;8112;53.592;10.184;2023-05-09T04:54:58;101569.69;;;10.71;100.00
16016;BME280;8112;53.592;10.184;2023-05-09T05:00:08;101567.22;;;10.86;100.00
16016;BME280;8112;53.592;10.184;2023-05-09T05:05:13;101556.69;;;11.05;100.00
16016;BME280;8112;53.592;10.184;2023-05-09T05:10:17;101566.03;;;11.30;100.00
16016;BME280;8112;53.592;10.184;2023-05-09T05:15:23;101543.72;;;11.54;100.00
16016;BME280;8112;53.592;10.184;2023-05-09T05:20:30;101543.41;;;11.61;100.00
16016;BME280;8112;53.592;10.184;2023-05-09T05:25:33;101543.00;;;11.86;100.00
16016;BME280;8112;53.592;10.184;2023-05-09T05:30:35;101523.97;;;12.15;100.00
16016;BME280;8112;53.592;10.184;2023-05-09T05:35:39;101518.97;;;12.26;100.00
16016;BME280;8112;53.592;10.184;2023-05-09T05:40:41;101513.44;;;12.47;100.00
16016;BME280;8112;53.592;10.184;2023-05-09T05:45:45;101511.22;;;12.71;100.00
16016;BME280;8112;53.592;10.184;2023-05-09T05:50:52;101499.88;;;12.85;100.00
16016;BME280;8112;53.592;10.184;2023-05-09T05:55:59;101506.16;;;12.98;100.00
16016;BME280;8112;53.592;10.184;2023-05-09T06:01:01;101510.25;;;13.20;100.00
16016;BME280;8112;53.592;10.184;2023-05-09T06:06:06;101502.25;;;13.36;100.00
16016;BME280;8112;53.592;10.184;2023-05-09T06:11:08;101501.72;;;13.76;100.00
16016;BME280;8112;53.592;10.184;2023-05-09T06:16:09;101497.94;;;13.80;100.00
16016;BME280;8112;53.592;10.184;2023-05-09T06:21:13;101505.69;;;13.98;100.00
16016;BME280;8112;53.592;10.184;2023-05-09T06:26:16;101504.75;;;14.14;100.00
16016;BME280;8112;53.592;10.184;2023-05-09T06:31:18;101498.69;;;14.26;100.00
16016;BME280;8112;53.592;10.184;2023-05-09T06:36:22;101484.84;;;14.50;100.00
16016;BME280;8112;53.592;10.184;2023-05-09T06:41:24;101475.31;;;14.60;100.00
16016;BME280;8112;53.592;10.184;2023-05-09T06:46:25;101477.28;;;14.86;100.00
16016;BME280;8112;53.592;10.184;2023-05-09T06:51:32;101465.94;;;14.96;100.00
16016;BME280;8112;53.592;10.184;2023-05-09T06:56:33;101455.56;;;15.06;100.00
16016;BME280;8112;53.592;10.184;2023-05-09T07:01:37;101456.69;;;15.30;100.00
16016;BME280;8112;53.592;10.184;2023-05-09T07:06:40;101448.13;;;15.52;100.00
16016;BME280;8112;53.592;10.184;2023-05-09T07:11:42;101435.69;;;15.78;100.00
16016;BME280;8112;53.592;10.184;2023-05-09T07:16:45;101431.94;;;15.68;100.00
16016;BME280;8112;53.592;10.184;2023-05-09T07:21:48;101425.47;;;15.98;100.00
16016;BME280;8112;53.592;10.184;2023-05-09T07:26:50;101424.44;;;16.25;100.00
16016;BME280;8112;53.592;10.184;2023-05-09T07:31:56;101405.97;;;16.48;100.00
16016;BME280;8112;53.592;10.184;2023-05-09T07:37:00;101407.38;;;16.65;100.00
16016;BME280;8112;53.592;10.184;2023-05-09T07:42:02;101404.22;;;16.95;100.00
16016;BME280;8112;53.592;10.184;2023-05-09T07:47:04;101391.81;;;17.07;100.00
16016;BME280;8112;53.592;10.184;2023-05-09T07:52:09;101381.84;;;17.45;100.00
16016;BME280;8112;53.592;10.184;2023-05-09T07:57:11;101375.56;;;17.58;100.00
16016;BME280;8112;53.592;10.184;2023-05-09T08:02:13;101363.19;;;17.79;100.00
16016;BME280;8112;53.592;10.184;2023-05-09T08:07:16;101358.00;;;18.33;100.00
16016;BME280;8112;53.592;10.184;2023-05-09T08:12:21;101362.16;;;18.59;100.00
16016;BME280;8112;53.592;10.184;2023-05-09T08:17:23;101339.19;;;18.68;95.53
16016;BME280;8112;53.592;10.184;2023-05-09T08:22:29;101334.44;;;18.71;94.25
16016;BME280;8112;53.592;10.184;2023-05-09T08:27:30;101332.81;;;18.80;91.75
16016;BME280;8112;53.592;10.184;2023-05-09T08:32:34;101324.34;;;19.17;93.33
16016;BME280;8112;53.592;10.184;2023-05-09T08:37:37;101327.28;;;19.45;91.18
16016;BME280;8112;53.592;10.184;2023-05-09T08:42:40;101316.59;;;19.45;88.87
16016;BME280;8112;53.592;10.184;2023-05-09T08:47:43;101310.44;;;19.64;84.84
16016;BME280;8112;53.592;10.184;2023-05-09T08:52:47;101311.16;;;20.27;85.45
16016;BME280;8112;53.592;10.184;2023-05-09T08:57:50;101303.28;;;20.26;86.52
16016;BME280;8112;53.592;10.184;2023-05-09T09:02:57;101299.44;;;20.38;83.02
16016;BME280;8112;53.592;10.184;2023-05-09T09:08:03;101294.91;;;20.78;81.37
16016;BME280;8112;53.592;10.184;2023-05-09T09:13:09;101280.50;;;20.79;75.72
16016;BME280;8112;53.592;10.184;2023-05-09T09:18:22;101279.53;;;20.90;75.34
16016;BME280;8112;53.592;10.184;2023-05-09T09:23:29;101276.00;;;20.79;78.67
16016;BME280;8112;53.592;10.184;2023-05-09T09:28:32;101264.25;;;21.10;79.18
16016;BME280;8112;53.592;10.184;2023-05-09T09:33:34;101261.88;;;21.35;74.76
16016;BME280;8112;53.592;10.184;2023-05-09T09:38:40;101252.06;;;21.26;72.87
16016;BME280;8112;53.592;10.184;2023-05-09T09:43:44;101252.66;;;21.10;67.06
16016;BME280;8112;53.592;10.184;2023-05-09T09:48:46;101250.16;;;21.08;65.33
16016;BME280;8112;53.592;10.184;2023-05-09T09:53:55;101241.00;;;20.43;66.01
16016;BME280;8112;53.592;10.184;2023-05-09T09:59:07;101231.84;;;20.26;69.07
16016;BME280;8112;53.592;10.184;2023-05-09T10:04:14;101229.56;;;20.61;68.58
16016;BME280;8112;53.592;10.184;2023-05-09T10:09:17;101213.59;;;20.69;65.67
16016;BME280;8112;53.592;10.184;2023-05-09T10:14:21;101214.97;;;20.83;62.19
16016;BME280;8112;53.592;10.184;2023-05-09T10:19:25;101210.25;;;21.05;62.28
16016;BME280;8112;53.592;10.184;2023-05-09T10:24:34;101207.09;;;21.66;61.20
16016;BME280;8112;53.592;10.184;2023-05-09T10:29:43;101195.75;;;21.90;59.55
16016;BME280;8112;53.592;10.184;2023-05-09T10:34:51;101188.16;;;22.48;60.77
16016;BME280;8112;53.592;10.184;2023-05-09T10:39:55;101177.91;;;22.78;56.93
16016;BME280;8112;53.592;10.184;2023-05-09T10:44:58;101173.56;;;22.77;55.38
16016;BME280;8112;53.592;10.184;2023-05-09T10:50:00;101158.66;;;23.26;53.96
16016;BME280;8112;53.592;10.184;2023-05-09T10:55:04;101155.22;;;23.24;52.29
16016;BME280;8112;53.592;10.184;2023-05-09T11:00:07;101146.09;;;23.59;50.56
16016;BME280;8112;53.592;10.184;2023-05-09T11:05:13;101121.88;;;24.09;48.98
16016;BME280;8112;53.592;10.184;2023-05-09T11:10:17;101115.41;;;24.43;46.51
16016;BME280;8112;53.592;10.184;2023-05-09T11:15:19;101121.47;;;24.45;45.82
16016;BME280;8112;53.592;10.184;2023-05-09T11:20:26;101100.88;;;24.53;44.88
16016;BME280;8112;53.592;10.184;2023-05-09T11:25:31;101083.75;;;24.45;44.44
16016;BME280;8112;53.592;10.184;2023-05-09T11:30:38;101079.63;;;24.01;43.82
16016;BME280;8112;53.592;10.184;2023-05-09T11:35:42;101068.88;;;23.93;44.77
16016;BME280;8112;53.592;10.184;2023-05-09T11:40:46;101064.53;;;23.67;45.16
16016;BME280;8112;53.592;10.184;2023-05-09T11:45:48;101056.81;;;23.39;46.18
16016;BME280;8112;53.592;10.184;2023-05-09T11:50:52;101041.97;;;23.18;45.75
16016;BME280;8112;53.592;10.184;2023-05-09T11:55:55;101042.84;;;23.60;45.89
16016;BME280;8112;53.592;10.184;2023-05-09T12:00:57;101026.69;;;23.77;45.11
16016;BME280;8112;53.592;10.184;2023-05-09T12:06:04;101032.06;;;23.85;46.73
16016;BME280;8112;53.592;10.184;2023-05-09T12:11:08;101016.97;;;23.59;47.28
16016;BME280;8112;53.592;10.184;2023-05-09T12:16:11;101004.88;;;23.47;47.34
16016;BME280;8112;53.592;10.184;2023-05-09T12:21:15;101002.47;;;23.69;49.17
16016;BME280;8112;53.592;10.184;2023-05-09T12:26:18;100996.66;;;23.32;48.15
16016;BME280;8112;53.592;10.184;2023-05-09T12:31:29;101004.19;;;23.20;49.77
16016;BME280;8112;53.592;10.184;2023-05-09T12:36:34;101017.44;;;23.05;49.57
16016;BME280;8112;53.592;10.184;2023-05-09T12:41:43;101000.16;;;23.32;48.31
16016;BME280;8112;53.592;10.184;2023-05-09T12:46:53;101013.09;;;23.12;49.18
16016;BME280;8112;53.592;10.184;2023-05-09T12:51:57;100996.16;;;23.28;49.91
16016;BME280;8112;53.592;10.184;2023-05-09T12:57:00;101007.72;;;23.37;48.42
16016;BME280;8112;53.592;10.184;2023-05-09T13:02:06;101004.00;;;23.21;48.50
16016;BME280;8112;53.592;10.184;2023-05-09T13:07:10;100997.97;;;23.11;49.16
16016;BME280;8112;53.592;10.184;2023-05-09T13:12:14;100983.53;;;23.37;48.50
16016;BME280;8112;53.592;10.184;2023-05-09T13:17:16;100982.88;;;23.27;50.23
16016;BME280;8112;53.592;10.184;2023-05-09T13:22:18;100976.81;;;23.25;49.42
16016;BME280;8112;53.592;10.184;2023-05-09T13:27:22;100967.06;;;23.15;48.96
16016;BME280;8112;53.592;10.184;2023-05-09T13:32:24;100958.31;;;22.88;48.38
16016;BME280;8112;53.592;10.184;2023-05-09T13:37:26;100952.63;;;23.08;49.33
16016;BME280;8112;53.592;10.184;2023-05-09T13:42:32;100932.94;;;23.32;48.80
16016;BME280;8112;53.592;10.184;2023-05-09T13:47:35;100931.97;;;23.33;47.91
16016;BME280;8112;53.592;10.184;2023-05-09T13:52:37;100928.41;;;23.00;47.92
16016;BME280;8112;53.592;10.184;2023-05-09T13:57:41;100923.34;;;23.55;45.88
16016;BME280;8112;53.592;10.184;2023-05-09T14:02:44;100921.69;;;23.45;46.88
16016;BME280;8112;53.592;10.184;2023-05-09T14:07:46;100924.38;;;23.45;47.60
16016;BME280;8112;53.592;10.184;2023-05-09T14:12:50;100915.50;;;23.28;47.02
16016;BME280;8112;53.592;10.184;2023-05-09T14:17:53;100903.06;;;23.27;46.32
16016;BME280;8112;53.592;10.184;2023-05-09T14:22:57;100900.22;;;23.29;46.57
16016;BME280;8112;53.592;10.184;2023-05-09T14:28:03;100888.13;;;23.08;47.94
16016;BME280;8112;53.592;10.184;2023-05-09T14:33:10;100884.94;;;22.63;47.74
16016;BME280;8112;53.592;10.184;2023-05-09T14:38:12;100879.88;;;23.26;47.90
16016;BME280;8112;53.592;10.184;2023-05-09T14:43:15;100866.78;;;23.80;47.83
16016;BME280;8112;53.592;10.184;2023-05-09T14:48:17;100861.88;;;24.15;46.49
16016;BME280;8112;53.592;10.184;2023-05-09T14:53:19;100850.34;;;23.98;45.24
16016;BME280;8112;53.592;10.184;2023-05-09T14:58:23;100844.78;;;23.68;44.28
16016;BME280;8112;53.592;10.184;2023-05-09T15:03:26;100844.91;;;23.74;44.70
16016;BME280;8112;53.592;10.184;2023-05-09T15:08:28;100833.84;;;23.04;43.43
16016;BME280;8112;53.592;10.184;2023-05-09T15:13:33;100831.69;;;23.65;44.47
16016;BME280;8112;53.592;10.184;2023-05-09T15:18:35;100826.13;;;23.66;43.64
16016;BME280;8112;53.592;10.184;2023-05-09T15:23:42;100818.16;;;23.81;43.25
16016;BME280;8112;53.592;10.184;2023-05-09T15:28:48;100815.50;;;23.33;43.66
16016;BME280;8112;53.592;10.184;2023-05-09T15:33:50;100803.13;;;22.99;43.87
16016;BME280;8112;53.592;10.184;2023-05-09T15:38:51;100797.38;;;23.98;41.41
16016;BME280;8112;53.592;10.184;2023-05-09T15:43:56;100794.06;;;24.19;40.86
16016;BME280;8112;53.592;10.184;2023-05-09T15:48:58;100798.78;;;25.47;39.30
16016;BME280;8112;53.592;10.184;2023-05-09T15:54:00;100777.66;;;25.21;38.85
16016;BME280;8112;53.592;10.184;2023-05-09T15:59:03;100773.28;;;24.90;38.44
16016;BME280;8112;53.592;10.184;2023-05-09T16:04:07;100767.50;;;26.12;37.27
16016;BME280;8112;53.592;10.184;2023-05-09T16:09:09;100752.09;;;26.27;36.93
16016;BME280;8112;53.592;10.184;2023-05-09T16:14:12;100751.53;;;25.73;35.83
16016;BME280;8112;53.592;10.184;2023-05-09T16:19:14;100750.22;;;24.49;38.31
16016;BME280;8112;53.592;10.184;2023-05-09T16:24:18;100747.34;;;24.12;38.43
16016;BME280;8112;53.592;10.184;2023-05-09T16:29:21;100740.72;;;23.68;38.90
16016;BME280;8112;53.592;10.184;2023-05-09T16:34:23;100733.00;;;23.33;38.24
16016;BME280;8112;53.592;10.184;2023-05-09T16:39:25;100740.38;;;22.75;39.24
16016;BME280;8112;53.592;10.184;2023-05-09T16:44:30;100736.84;;;22.41;39.80
16016;BME280;8112;53.592;10.184;2023-05-09T16:49:32;100732.41;;;21.57;41.28
16016;BME280;8112;53.592;10.184;2023-05-09T16:54:34;100724.91;;;21.26;41.59
16016;BME280;8112;53.592;10.184;2023-05-09T16:59:37;100705.13;;;20.84;41.55
16016;BME280;8112;53.592;10.184;2023-05-09T17:04:40;100707.47;;;20.61;42.25
16016;BME280;8112;53.592;10.184;2023-05-09T17:09:42;100706.38;;;20.45;43.42
16016;BME280;8112;53.592;10.184;2023-05-09T17:14:45;100703.47;;;20.39;43.76
16016;BME280;8112;53.592;10.184;2023-05-09T17:19:48;100701.75;;;20.11;44.32
16016;BME280;8112;53.592;10.184;2023-05-09T17:24:49;100695.50;;;20.02;43.70
16016;BME280;8112;53.592;10.184;2023-05-09T17:29:53;100690.34;;;19.91;44.06
16016;BME280;8112;53.592;10.184;2023-05-09T17:34:55;100679.56;;;19.83;44.38
16016;BME280;8112;53.592;10.184;2023-05-09T17:39:58;100680.25;;;19.66;44.75
16016;BME280;8112;53.592;10.184;2023-05-09T17:45:03;100684.84;;;19.56;44.83
16016;BME280;8112;53.592;10.184;2023-05-09T17:50:05;100684.84;;;19.56;45.46
16016;BME280;8112;53.592;10.184;2023-05-09T17:55:10;100683.66;;;19.41;45.20
16016;BME280;8112;53.592;10.184;2023-05-09T18:00:16;100685.09;;;19.35;45.49
16016;BME280;8112;53.592;10.184;2023-05-09T18:05:35;100689.03;;;19.13;45.74
16016;BME280;8112;53.592;10.184;2023-05-09T18:10:47;100687.25;;;18.93;45.69
16016;BME280;8112;53.592;10.184;2023-05-09T18:15:50;100683.75;;;18.83;46.41
16016;BME280;8112;53.592;10.184;2023-05-09T18:20:54;100682.81;;;18.74;47.32
16016;BME280;8112;53.592;10.184;2023-05-09T18:25:56;100684.66;;;18.74;47.25
16016;BME280;8112;53.592;10.184;2023-05-09T18:30:59;100686.50;;;18.54;47.85
16016;BME280;8112;53.592;10.184;2023-05-09T18:36:02;100690.78;;;18.36;47.88
16016;BME280;8112;53.592;10.184;2023-05-09T18:41:06;100700.75;;;18.34;48.26
16016;BME280;8112;53.592;10.184;2023-05-09T18:46:10;100689.13;;;18.16;49.16
16016;BME280;8112;53.592;10.184;2023-05-09T18:51:16;100683.31;;;17.91;49.25
16016;BME280;8112;53.592;10.184;2023-05-09T18:56:18;100679.25;;;17.67;48.85
16016;BME280;8112;53.592;10.184;2023-05-09T19:01:23;100682.59;;;17.59;49.99
16016;BME280;8112;53.592;10.184;2023-05-09T19:06:31;100675.56;;;17.48;50.61
16016;BME280;8112;53.592;10.184;2023-05-09T19:11:49;100676.94;;;17.33;51.52
16016;BME280;8112;53.592;10.184;2023-05-09T19:16:52;100667.94;;;17.24;50.66
16016;BME280;8112;53.592;10.184;2023-05-09T19:21:54;100678.84;;;17.11;51.66
16016;BME280;8112;53.592;10.184;2023-05-09T19:26:56;100672.09;;;17.07;52.32
16016;BME280;8112;53.592;10.184;2023-05-09T19:31:59;100664.78;;;16.99;51.25
16016;BME280;8112;53.592;10.184;2023-05-09T19:37:02;100669.63;;;16.84;53.27
16016;BME280;8112;53.592;10.184;2023-05-09T19:42:04;100673.38;;;16.81;52.89
16016;BME280;8112;53.592;10.184;2023-05-09T19:47:09;100661.81;;;16.71;53.79
16016;BME280;8112;53.592;10.184;2023-05-09T19:52:11;100671.69;;;16.80;54.50
16016;BME280;8112;53.592;10.184;2023-05-09T19:57:13;100663.78;;;16.69;54.36
16016;BME280;8112;53.592;10.184;2023-05-09T20:02:16;100664.38;;;16.51;55.92
16016;BME280;8112;53.592;10.184;2023-05-09T20:07:18;100666.50;;;16.48;57.87
16016;BME280;8112;53.592;10.184;2023-05-09T20:12:20;100667.47;;;16.47;58.44
16016;BME280;8112;53.592;10.184;2023-05-09T20:17:25;100665.69;;;16.36;58.77
16016;BME280;8112;53.592;10.184;2023-05-09T20:22:28;100660.00;;;16.19;60.42
16016;BME280;8112;53.592;10.184;2023-05-09T20:27:31;100658.50;;;16.27;61.39
16016;BME280;8112;53.592;10.184;2023-05-09T20:32:36;100653.84;;;16.19;62.63
16016;BME280;8112;53.592;10.184;2023-05-09T20:37:38;100668.16;;;16.06;63.34
16016;BME280;8112;53.592;10.184;2023-05-09T20:42:40;100652.72;;;16.00;63.81
16016;BME280;8112;53.592;10.184;2023-05-09T20:47:43;100654.41;;;16.01;65.64
16016;BME280;8112;53.592;10.184;2023-05-09T20:52:45;100654.44;;;15.90;67.72
16016;BME280;8112;53.592;10.184;2023-05-09T20:57:48;100649.38;;;15.87;68.27
16016;BME280;8112;53.592;10.184;2023-05-09T21:02:52;100641.56;;;15.74;70.20
16016;BME280;8112;53.592;10.184;2023-05-09T21:07:55;100643.28;;;15.63;72.26
16016;BME280;8112;53.592;10.184;2023-05-09T21:12:58;100636.91;;;15.54;73.65
16016;BME280;8112;53.592;10.184;2023-05-09T21:18:01;100615.94;;;15.51;76.28
16016;BME280;8112;53.592;10.184;2023-05-09T21:23:04;100618.38;;;15.43;77.02
16016;BME280;8112;53.592;10.184;2023-05-09T21:28:06;100615.72;;;15.43;78.82
16016;BME280;8112;53.592;10.184;2023-05-09T21:33:11;100609.09;;;15.37;80.30
16016;BME280;8112;53.592;10.184;2023-05-09T21:38:13;100605.59;;;15.37;81.55
16016;BME280;8112;53.592;10.184;2023-05-09T21:43:17;100604.22;;;15.21;83.29
16016;BME280;8112;53.592;10.184;2023-05-09T21:48:21;100598.91;;;15.21;85.55
16016;BME280;8112;53.592;10.184;2023-05-09T21:53:24;100599.72;;;15.22;86.95
16016;BME280;8112;53.592;10.184;2023-05-09T21:58:26;100594.91;;;15.16;88.92
16016;BME280;8112;53.592;10.184;2023-05-09T22:03:29;100597.69;;;15.14;90.70
16016;BME280;8112;53.592;10.184;2023-05-09T22:08:31;100579.72;;;15.06;92.11
16016;BME280;8112;53.592;10.184;2023-05-09T22:13:33;100578.44;;;15.01;93.59
16016;BME280;8112;53.592;10.184;2023-05-09T22:18:37;100575.53;;;14.92;94.56
16016;BME280;8112;53.592;10.184;2023-05-09T22:23:39;100578.19;;;14.92;95.04
16016;BME280;8112;53.592;10.184;2023-05-09T22:28:41;100569.50;;;14.90;96.45
16016;BME280;8112;53.592;10.184;2023-05-09T22:33:45;100568.09;;;14.86;98.13
16016;BME280;8112;53.592;10.184;2023-05-09T22:38:47;100571.09;;;14.81;99.09
16016;BME280;8112;53.592;10.184;2023-05-09T22:43:49;100569.25;;;14.71;99.44
16016;BME280;8112;53.592;10.184;2023-05-09T22:48:52;100563.03;;;14.72;100.00
16016;BME280;8112;53.592;10.184;2023-05-09T22:53:54;100561.66;;;14.66;100.00
16016;BME280;8112;53.592;10.184;2023-05-09T22:58:56;100556.34;;;14.66;100.00
16016;BME280;8112;53.592;10.184;2023-05-09T23:03:59;100559.16;;;14.64;100.00
16016;BME280;8112;53.592;10.184;2023-05-09T23:09:01;100554.06;;;14.61;100.00
16016;BME280;8112;53.592;10.184;2023-05-09T23:14:05;100547.94;;;14.49;100.00
16016;BME280;8112;53.592;10.184;2023-05-09T23:19:08;100536.59;;;14.47;100.00
16016;BME280;8112;53.592;10.184;2023-05-09T23:24:10;100528.53;;;14.37;100.00
16016;BME280;8112;53.592;10.184;2023-05-09T23:29:12;100526.13;;;14.34;100.00
16016;BME280;8112;53.592;10.184;2023-05-09T23:34:15;100520.94;;;14.33;100.00
16016;BME280;8112;53.592;10.184;2023-05-09T23:39:17;100515.78;;;14.31;100.00
16016;BME280;8112;53.592;10.184;2023-05-09T23:44:19;100516.84;;;14.29;100.00
16016;BME280;8112;53.592;10.184;2023-05-09T23:49:25;100512.03;;;14.22;100.00
16016;BME280;8112;53.592;10.184;2023-05-09T23:54:27;100514.78;;;14.21;100.00
16016;BME280;8112;53.592;10.184;2023-05-09T23:59:29;100512.03;;;14.11;100.00
